sensor_id;sensor_type;location;lat;lon;timestamp;P1;durP1;ratioP1;P2;durP2;ratioP2
43883;SDS011;29544;52.018;5.810;2023-06-01T00:00:10;3.40;;;2.20;;
43883;SDS011;29544;52.018;5.810;2023-06-01T00:02:36;3.85;;;1.98;;
43883;SDS011;29544;52.018;5.810;2023-06-01T00:05:01;3.30;;;2.00;;
43883;SDS011;29544;52.018;5.810;2023-06-01T00:07:27;4.28;;;1.95;;
43883;SDS011;29544;52.018;5.810;2023-06-01T00:09:55;4.82;;;2.17;;
43883;SDS011;29544;52.018;5.810;2023-06-01T00:12:20;5.30;;;2.60;;
43883;SDS011;29544;52.018;5.810;2023-06-01T00:14:46;3.73;;;2.20;;
43883;SDS011;29544;52.018;5.810;2023-06-01T00:17:11;3.23;;;2.00;;
43883;SDS011;29544;52.018;5.810;2023-06-01T00:19:37;4.77;;;2.30;;
43883;SDS011;29544;52.018;5.810;2023-06-01T00:22:03;4.88;;;2.28;;
43883;SDS011;29544;52.018;5.810;2023-06-01T00:24:29;3.10;;;1.98;;
43883;SDS011;29544;52.018;5.810;2023-06-01T00:26:55;4.20;;;2.23;;
43883;SDS011;29544;52.018;5.810;2023-06-01T00:29:20;2.70;;;2.00;;
43883;SDS011;29544;52.018;5.810;2023-06-01T00:31:46;3.73;;;2.07;;
43883;SDS011;29544;52.018;5.810;2023-06-01T00:34:11;3.47;;;2.00;;
43883;SDS011;29544;52.018;5.810;2023-06-01T00:36:37;4.00;;;2.10;;
43883;SDS011;29544;52.018;5.810;2023-06-01T00:39:02;3.77;;;1.97;;
43883;SDS011;29544;52.018;5.810;2023-06-01T00:41:29;4.75;;;2.20;;
43883;SDS011;29544;52.018;5.810;2023-06-01T00:46:20;5.55;;;2.35;;
43883;SDS011;29544;52.018;5.810;2023-06-01T00:48:46;3.67;;;2.10;;
43883;SDS011;29544;52.018;5.810;2023-06-01T00:51:12;5.75;;;2.42;;
43883;SDS011;29544;52.018;5.810;2023-06-01T00:53:40;3.47;;;1.98;;
43883;SDS011;29544;52.018;5.810;2023-06-01T00:56:06;3.28;;;2.33;;
43883;SDS011;29544;52.018;5.810;2023-06-01T00:58:33;2.67;;;1.90;;
43883;SDS011;29544;52.018;5.810;2023-06-01T01:00:58;3.53;;;1.90;;
43883;SDS011;29544;52.018;5.810;2023-06-01T01:03:24;2.50;;;1.97;;
43883;SDS011;29544;52.018;5.810;2023-06-01T01:08:33;3.13;;;2.05;;
43883;SDS011;29544;52.018;5.810;2023-06-01T01:11:04;5.45;;;2.50;;
43883;SDS011;29544;52.018;5.810;2023-06-01T01:13:35;3.45;;;1.80;;
43883;SDS011;29544;52.018;5.810;2023-06-01T01:18:46;4.85;;;2.10;;
43883;SDS011;29544;52.018;5.810;2023-06-01T01:21:19;3.20;;;2.20;;
43883;SDS011;29544;52.018;5.810;2023-06-01T01:24:40;3.45;;;1.92;;
43883;SDS011;29544;52.018;5.810;2023-06-01T01:26:59;3.38;;;2.40;;
43883;SDS011;29544;52.018;5.810;2023-06-01T01:29:39;4.68;;;2.05;;
43883;SDS011;29544;52.018;5.810;2023-06-01T01:32:07;3.83;;;1.90;;
43883;SDS011;29544;52.018;5.810;2023-06-01T01:34:34;3.47;;;2.15;;
43883;SDS011;29544;52.018;5.810;2023-06-01T01:37:01;3.03;;;1.80;;
43883;SDS011;29544;52.018;5.810;2023-06-01T01:39:27;3.75;;;2.50;;
43883;SDS011;29544;52.018;5.810;2023-06-01T01:41:52;3.20;;;2.43;;
43883;SDS011;29544;52.018;5.810;2023-06-01T01:44:18;5.47;;;2.70;;
43883;SDS011;29544;52.018;5.810;2023-06-01T01:49:28;4.68;;;1.80;;
43883;SDS011;29544;52.018;5.810;2023-06-01T01:54:44;3.83;;;1.98;;
43883;SDS011;29544;52.018;5.810;2023-06-01T01:57:14;4.00;;;1.80;;
43883;SDS011;29544;52.018;5.810;2023-06-01T01:59:47;4.03;;;2.30;;
43883;SDS011;29544;52.018;5.810;2023-06-01T02:02:14;3.42;;;1.88;;
43883;SDS011;29544;52.018;5.810;2023-06-01T02:04:40;3.28;;;1.90;;
43883;SDS011;29544;52.018;5.810;2023-06-01T02:07:06;5.07;;;2.13;;
43883;SDS011;29544;52.018;5.810;2023-06-01T02:09:32;2.80;;;1.67;;
43883;SDS011;29544;52.018;5.810;2023-06-01T02:11:58;4.27;;;2.07;;
43883;SDS011;29544;52.018;5.810;2023-06-01T02:14:24;4.43;;;2.10;;
43883;SDS011;29544;52.018;5.810;2023-06-01T02:16:49;3.00;;;1.80;;
43883;SDS011;29544;52.018;5.810;2023-06-01T02:19:15;2.67;;;1.90;;
43883;SDS011;29544;52.018;5.810;2023-06-01T02:21:41;3.15;;;1.67;;
43883;SDS011;29544;52.018;5.810;2023-06-01T02:26:33;4.20;;;1.83;;
43883;SDS011;29544;52.018;5.810;2023-06-01T02:28:59;3.70;;;1.80;;
43883;SDS011;29544;52.018;5.810;2023-06-01T02:31:27;3.47;;;1.92;;
43883;SDS011;29544;52.018;5.810;2023-06-01T02:33:53;2.97;;;2.03;;
43883;SDS011;29544;52.018;5.810;2023-06-01T02:36:19;2.50;;;1.70;;
43883;SDS011;29544;52.018;5.810;2023-06-01T02:38:44;3.43;;;1.93;;
43883;SDS011;29544;52.018;5.810;2023-06-01T02:41:10;3.80;;;1.80;;
43883;SDS011;29544;52.018;5.810;2023-06-01T02:43:37;4.35;;;2.47;;
43883;SDS011;29544;52.018;5.810;2023-06-01T02:46:02;3.97;;;1.90;;
43883;SDS011;29544;52.018;5.810;2023-06-01T02:48:28;4.13;;;2.17;;
43883;SDS011;29544;52.018;5.810;2023-06-01T02:50:54;3.85;;;2.35;;
43883;SDS011;29544;52.018;5.810;2023-06-01T02:53:20;3.28;;;1.90;;
43883;SDS011;29544;52.018;5.810;2023-06-01T02:55:46;4.00;;;1.85;;
43883;SDS011;29544;52.018;5.810;2023-06-01T02:58:11;2.97;;;1.40;;
43883;SDS011;29544;52.018;5.810;2023-06-01T03:00:44;4.03;;;2.10;;
43883;SDS011;29544;52.018;5.810;2023-06-01T03:03:10;2.63;;;1.75;;
43883;SDS011;29544;52.018;5.810;2023-06-01T03:05:36;3.50;;;2.00;;
43883;SDS011;29544;52.018;5.810;2023-06-01T03:08:02;3.03;;;2.28;;
43883;SDS011;29544;52.018;5.810;2023-06-01T03:10:29;4.15;;;1.92;;
43883;SDS011;29544;52.018;5.810;2023-06-01T03:12:54;3.30;;;2.37;;
43883;SDS011;29544;52.018;5.810;2023-06-01T03:15:20;5.27;;;2.37;;
43883;SDS011;29544;52.018;5.810;2023-06-01T03:17:46;3.00;;;1.98;;
43883;SDS011;29544;52.018;5.810;2023-06-01T03:20:11;3.83;;;2.23;;
43883;SDS011;29544;52.018;5.810;2023-06-01T03:22:41;3.85;;;1.85;;
43883;SDS011;29544;52.018;5.810;2023-06-01T03:25:07;3.15;;;1.80;;
43883;SDS011;29544;52.018;5.810;2023-06-01T03:27:33;4.60;;;2.38;;
43883;SDS011;29544;52.018;5.810;2023-06-01T03:29:58;4.97;;;2.27;;
43883;SDS011;29544;52.018;5.810;2023-06-01T03:32:24;3.43;;;2.00;;
43883;SDS011;29544;52.018;5.810;2023-06-01T03:34:49;4.10;;;2.10;;
43883;SDS011;29544;52.018;5.810;2023-06-01T03:37:15;4.70;;;2.10;;
43883;SDS011;29544;52.018;5.810;2023-06-01T03:39:40;4.50;;;2.03;;
43883;SDS011;29544;52.018;5.810;2023-06-01T03:42:06;4.00;;;2.17;;
43883;SDS011;29544;52.018;5.810;2023-06-01T03:44:34;3.25;;;2.00;;
43883;SDS011;29544;52.018;5.810;2023-06-01T03:47:00;4.50;;;2.13;;
43883;SDS011;29544;52.018;5.810;2023-06-01T03:49:26;3.97;;;2.33;;
43883;SDS011;29544;52.018;5.810;2023-06-01T03:51:51;4.00;;;2.00;;
43883;SDS011;29544;52.018;5.810;2023-06-01T03:54:17;3.33;;;2.00;;
43883;SDS011;29544;52.018;5.810;2023-06-01T03:56:42;3.10;;;1.83;;
43883;SDS011;29544;52.018;5.810;2023-06-01T03:59:08;4.13;;;2.07;;
43883;SDS011;29544;52.018;5.810;2023-06-01T04:01:35;2.97;;;1.90;;
43883;SDS011;29544;52.018;5.810;2023-06-01T04:04:03;4.15;;;2.38;;
43883;SDS011;29544;52.018;5.810;2023-06-01T04:06:30;3.20;;;2.05;;
43883;SDS011;29544;52.018;5.810;2023-06-01T04:09:00;4.03;;;2.40;;
43883;SDS011;29544;52.018;5.810;2023-06-01T04:11:32;5.68;;;2.03;;
43883;SDS011;29544;52.018;5.810;2023-06-01T04:14:01;2.65;;;1.77;;
43883;SDS011;29544;52.018;5.810;2023-06-01T04:16:26;5.03;;;2.27;;
43883;SDS011;29544;52.018;5.810;2023-06-01T04:18:52;4.40;;;2.38;;
43883;SDS011;29544;52.018;5.810;2023-06-01T04:21:19;4.13;;;2.30;;
43883;SDS011;29544;52.018;5.810;2023-06-01T04:23:46;3.83;;;2.28;;
43883;SDS011;29544;52.018;5.810;2023-06-01T04:26:11;4.63;;;2.30;;
43883;SDS011;29544;52.018;5.810;2023-06-01T04:28:37;3.57;;;2.37;;
43883;SDS011;29544;52.018;5.810;2023-06-01T04:31:08;4.38;;;2.28;;
43883;SDS011;29544;52.018;5.810;2023-06-01T04:33:42;4.38;;;2.08;;
43883;SDS011;29544;52.018;5.810;2023-06-01T04:36:11;6.38;;;3.25;;
43883;SDS011;29544;52.018;5.810;2023-06-01T04:38:39;3.42;;;2.10;;
43883;SDS011;29544;52.018;5.810;2023-06-01T04:41:06;3.97;;;2.10;;
43883;SDS011;29544;52.018;5.810;2023-06-01T04:43:35;3.40;;;2.08;;
43883;SDS011;29544;52.018;5.810;2023-06-01T04:46:03;6.07;;;2.67;;
43883;SDS011;29544;52.018;5.810;2023-06-01T04:48:30;5.30;;;2.50;;
43883;SDS011;29544;52.018;5.810;2023-06-01T04:50:57;4.57;;;2.25;;
43883;SDS011;29544;52.018;5.810;2023-06-01T04:53:26;5.18;;;2.78;;
43883;SDS011;29544;52.018;5.810;2023-06-01T04:55:52;4.57;;;2.50;;
43883;SDS011;29544;52.018;5.810;2023-06-01T04:58:18;3.60;;;2.13;;
43883;SDS011;29544;52.018;5.810;2023-06-01T05:00:45;4.47;;;2.40;;
43883;SDS011;29544;52.018;5.810;2023-06-01T05:03:11;3.90;;;2.17;;
43883;SDS011;29544;52.018;5.810;2023-06-01T05:05:37;4.15;;;2.45;;
43883;SDS011;29544;52.018;5.810;2023-06-01T05:08:02;4.03;;;2.17;;
43883;SDS011;29544;52.018;5.810;2023-06-01T05:10:29;6.00;;;2.50;;
43883;SDS011;29544;52.018;5.810;2023-06-01T05:12:55;6.03;;;2.83;;
43883;SDS011;29544;52.018;5.810;2023-06-01T05:15:20;3.90;;;2.23;;
43883;SDS011;29544;52.018;5.810;2023-06-01T05:17:46;4.37;;;2.37;;
43883;SDS011;29544;52.018;5.810;2023-06-01T05:20:12;5.65;;;2.60;;
43883;SDS011;29544;52.018;5.810;2023-06-01T05:22:38;4.53;;;2.72;;
43883;SDS011;29544;52.018;5.810;2023-06-01T05:25:04;3.10;;;1.97;;
43883;SDS011;29544;52.018;5.810;2023-06-01T05:27:33;4.63;;;2.90;;
43883;SDS011;29544;52.018;5.810;2023-06-01T05:29:58;4.93;;;2.57;;
43883;SDS011;29544;52.018;5.810;2023-06-01T05:32:24;3.53;;;2.30;;
43883;SDS011;29544;52.018;5.810;2023-06-01T05:34:50;4.50;;;2.77;;
43883;SDS011;29544;52.018;5.810;2023-06-01T05:37:15;4.73;;;2.33;;
43883;SDS011;29544;52.018;5.810;2023-06-01T05:39:41;4.73;;;2.70;;
43883;SDS011;29544;52.018;5.810;2023-06-01T05:42:06;4.73;;;2.97;;
43883;SDS011;29544;52.018;5.810;2023-06-01T05:44:32;5.70;;;3.00;;
43883;SDS011;29544;52.018;5.810;2023-06-01T05:46:57;5.13;;;2.43;;
43883;SDS011;29544;52.018;5.810;2023-06-01T05:49:23;4.13;;;2.33;;
43883;SDS011;29544;52.018;5.810;2023-06-01T05:51:48;5.03;;;2.87;;
43883;SDS011;29544;52.018;5.810;2023-06-01T05:54:14;4.38;;;2.30;;
43883;SDS011;29544;52.018;5.810;2023-06-01T05:56:40;3.80;;;2.10;;
43883;SDS011;29544;52.018;5.810;2023-06-01T05:59:05;3.83;;;2.47;;
43883;SDS011;29544;52.018;5.810;2023-06-01T06:01:31;5.47;;;2.77;;
43883;SDS011;29544;52.018;5.810;2023-06-01T06:03:57;5.43;;;2.80;;
43883;SDS011;29544;52.018;5.810;2023-06-01T06:06:22;4.57;;;2.60;;
43883;SDS011;29544;52.018;5.810;2023-06-01T06:08:48;4.70;;;2.65;;
43883;SDS011;29544;52.018;5.810;2023-06-01T06:11:15;5.70;;;2.75;;
43883;SDS011;29544;52.018;5.810;2023-06-01T06:13:40;5.37;;;2.77;;
43883;SDS011;29544;52.018;5.810;2023-06-01T06:16:06;4.43;;;2.47;;
43883;SDS011;29544;52.018;5.810;2023-06-01T06:18:31;5.43;;;2.87;;
43883;SDS011;29544;52.018;5.810;2023-06-01T06:20:58;4.63;;;2.72;;
43883;SDS011;29544;52.018;5.810;2023-06-01T06:23:23;5.73;;;3.07;;
43883;SDS011;29544;52.018;5.810;2023-06-01T06:25:49;3.83;;;2.67;;
43883;SDS011;29544;52.018;5.810;2023-06-01T06:28:15;4.73;;;2.70;;
43883;SDS011;29544;52.018;5.810;2023-06-01T06:30:40;5.68;;;2.83;;
43883;SDS011;29544;52.018;5.810;2023-06-01T06:33:06;4.10;;;2.53;;
43883;SDS011;29544;52.018;5.810;2023-06-01T06:35:31;4.20;;;2.93;;
43883;SDS011;29544;52.018;5.810;2023-06-01T06:37:57;5.17;;;2.53;;
43883;SDS011;29544;52.018;5.810;2023-06-01T06:40:23;4.13;;;2.60;;
43883;SDS011;29544;52.018;5.810;2023-06-01T06:42:48;4.03;;;2.67;;
43883;SDS011;29544;52.018;5.810;2023-06-01T06:45:15;4.18;;;2.80;;
43883;SDS011;29544;52.018;5.810;2023-06-01T06:47:41;5.70;;;3.15;;
43883;SDS011;29544;52.018;5.810;2023-06-01T06:50:07;7.07;;;2.93;;
43883;SDS011;29544;52.018;5.810;2023-06-01T06:52:33;7.10;;;3.33;;
43883;SDS011;29544;52.018;5.810;2023-06-01T06:54:58;5.40;;;3.07;;
43883;SDS011;29544;52.018;5.810;2023-06-01T06:57:24;5.90;;;3.00;;
43883;SDS011;29544;52.018;5.810;2023-06-01T06:59:49;6.00;;;3.00;;
43883;SDS011;29544;52.018;5.810;2023-06-01T07:02:15;6.63;;;3.15;;
43883;SDS011;29544;52.018;5.810;2023-06-01T07:04:41;4.50;;;2.87;;
43883;SDS011;29544;52.018;5.810;2023-06-01T07:07:07;5.87;;;2.70;;
43883;SDS011;29544;52.018;5.810;2023-06-01T07:09:32;7.77;;;3.33;;
43883;SDS011;29544;52.018;5.810;2023-06-01T07:11:58;8.73;;;3.30;;
43883;SDS011;29544;52.018;5.810;2023-06-01T07:14:23;7.37;;;3.13;;
43883;SDS011;29544;52.018;5.810;2023-06-01T07:16:49;5.13;;;2.97;;
43883;SDS011;29544;52.018;5.810;2023-06-01T07:19:15;6.75;;;3.10;;
43883;SDS011;29544;52.018;5.810;2023-06-01T07:21:41;5.47;;;3.05;;
43883;SDS011;29544;52.018;5.810;2023-06-01T07:24:07;5.43;;;3.43;;
43883;SDS011;29544;52.018;5.810;2023-06-01T07:26:33;5.15;;;2.75;;
43883;SDS011;29544;52.018;5.810;2023-06-01T07:28:58;6.63;;;2.97;;
43883;SDS011;29544;52.018;5.810;2023-06-01T07:31:25;6.50;;;3.47;;
43883;SDS011;29544;52.018;5.810;2023-06-01T07:33:52;8.60;;;3.80;;
43883;SDS011;29544;52.018;5.810;2023-06-01T07:36:20;4.85;;;3.08;;
43883;SDS011;29544;52.018;5.810;2023-06-01T07:38:48;6.72;;;3.03;;
43883;SDS011;29544;52.018;5.810;2023-06-01T07:41:14;7.22;;;3.33;;
43883;SDS011;29544;52.018;5.810;2023-06-01T07:43:39;7.40;;;3.47;;
43883;SDS011;29544;52.018;5.810;2023-06-01T07:46:05;7.90;;;3.37;;
43883;SDS011;29544;52.018;5.810;2023-06-01T07:48:30;8.83;;;4.03;;
43883;SDS011;29544;52.018;5.810;2023-06-01T07:51:01;4.60;;;3.38;;
43883;SDS011;29544;52.018;5.810;2023-06-01T07:53:27;6.22;;;3.38;;
43883;SDS011;29544;52.018;5.810;2023-06-01T07:55:53;6.47;;;3.17;;
43883;SDS011;29544;52.018;5.810;2023-06-01T07:58:18;7.17;;;3.87;;
43883;SDS011;29544;52.018;5.810;2023-06-01T08:00:44;7.23;;;3.90;;
43883;SDS011;29544;52.018;5.810;2023-06-01T08:03:09;6.03;;;3.23;;
43883;SDS011;29544;52.018;5.810;2023-06-01T08:05:35;7.68;;;3.63;;
43883;SDS011;29544;52.018;5.810;2023-06-01T08:08:01;7.13;;;3.40;;
43883;SDS011;29544;52.018;5.810;2023-06-01T08:10:27;5.60;;;3.60;;
43883;SDS011;29544;52.018;5.810;2023-06-01T08:12:53;6.27;;;3.80;;
43883;SDS011;29544;52.018;5.810;2023-06-01T08:15:21;6.90;;;3.78;;
43883;SDS011;29544;52.018;5.810;2023-06-01T08:17:48;6.70;;;3.58;;
43883;SDS011;29544;52.018;5.810;2023-06-01T08:20:15;7.60;;;3.83;;
43883;SDS011;29544;52.018;5.810;2023-06-01T08:22:46;8.00;;;3.90;;
43883;SDS011;29544;52.018;5.810;2023-06-01T08:25:11;7.40;;;3.63;;
43883;SDS011;29544;52.018;5.810;2023-06-01T08:27:39;7.10;;;3.70;;
43883;SDS011;29544;52.018;5.810;2023-06-01T08:30:05;10.50;;;3.75;;
43883;SDS011;29544;52.018;5.810;2023-06-01T08:34:57;4.93;;;3.25;;
43883;SDS011;29544;52.018;5.810;2023-06-01T08:37:23;6.10;;;3.57;;
43883;SDS011;29544;52.018;5.810;2023-06-01T08:39:48;5.90;;;3.67;;
43883;SDS011;29544;52.018;5.810;2023-06-01T08:42:22;6.23;;;3.40;;
43883;SDS011;29544;52.018;5.810;2023-06-01T08:45:04;6.93;;;3.20;;
43883;SDS011;29544;52.018;5.810;2023-06-01T08:47:30;6.22;;;3.13;;
43883;SDS011;29544;52.018;5.810;2023-06-01T08:49:58;6.93;;;3.33;;
43883;SDS011;29544;52.018;5.810;2023-06-01T08:52:24;6.55;;;3.35;;
43883;SDS011;29544;52.018;5.810;2023-06-01T08:54:53;10.07;;;4.68;;
43883;SDS011;29544;52.018;5.810;2023-06-01T08:57:19;9.98;;;4.47;;
43883;SDS011;29544;52.018;5.810;2023-06-01T08:59:45;10.68;;;4.32;;
43883;SDS011;29544;52.018;5.810;2023-06-01T09:04:39;10.48;;;4.82;;
43883;SDS011;29544;52.018;5.810;2023-06-01T09:07:07;7.53;;;3.55;;
43883;SDS011;29544;52.018;5.810;2023-06-01T09:09:33;9.00;;;4.68;;
43883;SDS011;29544;52.018;5.810;2023-06-01T09:14:43;9.15;;;3.63;;
43883;SDS011;29544;52.018;5.810;2023-06-01T09:17:20;7.50;;;3.97;;
43883;SDS011;29544;52.018;5.810;2023-06-01T09:19:47;6.68;;;3.30;;
43883;SDS011;29544;52.018;5.810;2023-06-01T09:22:14;7.80;;;4.15;;
43883;SDS011;29544;52.018;5.810;2023-06-01T09:24:40;8.37;;;4.13;;
43883;SDS011;29544;52.018;5.810;2023-06-01T09:27:06;10.50;;;4.23;;
43883;SDS011;29544;52.018;5.810;2023-06-01T09:29:32;7.20;;;3.63;;
43883;SDS011;29544;52.018;5.810;2023-06-01T09:31:58;10.13;;;4.50;;
43883;SDS011;29544;52.018;5.810;2023-06-01T09:34:25;8.27;;;3.83;;
43883;SDS011;29544;52.018;5.810;2023-06-01T09:36:52;4.90;;;2.83;;
43883;SDS011;29544;52.018;5.810;2023-06-01T09:39:20;7.53;;;3.38;;
43883;SDS011;29544;52.018;5.810;2023-06-01T09:41:57;7.22;;;3.67;;
43883;SDS011;29544;52.018;5.810;2023-06-01T09:46:55;8.38;;;3.15;;
43883;SDS011;29544;52.018;5.810;2023-06-01T09:49:23;7.93;;;3.50;;
43883;SDS011;29544;52.018;5.810;2023-06-01T09:52:07;7.32;;;3.67;;
43883;SDS011;29544;52.018;5.810;2023-06-01T09:54:41;4.65;;;3.05;;
43883;SDS011;29544;52.018;5.810;2023-06-01T09:57:09;6.72;;;3.65;;
43883;SDS011;29544;52.018;5.810;2023-06-01T09:59:40;6.38;;;3.30;;
43883;SDS011;29544;52.018;5.810;2023-06-01T10:02:08;4.85;;;2.95;;
43883;SDS011;29544;52.018;5.810;2023-06-01T10:04:49;5.05;;;3.13;;
43883;SDS011;29544;52.018;5.810;2023-06-01T10:07:17;6.95;;;3.10;;
43883;SDS011;29544;52.018;5.810;2023-06-01T10:09:45;7.00;;;3.17;;
43883;SDS011;29544;52.018;5.810;2023-06-01T10:12:14;6.28;;;3.55;;
43883;SDS011;29544;52.018;5.810;2023-06-01T10:14:40;7.50;;;3.25;;
43883;SDS011;29544;52.018;5.810;2023-06-01T10:17:06;4.93;;;3.23;;
43883;SDS011;29544;52.018;5.810;2023-06-01T10:19:33;5.10;;;3.50;;
43883;SDS011;29544;52.018;5.810;2023-06-01T10:22:02;8.20;;;3.20;;
43883;SDS011;29544;52.018;5.810;2023-06-01T10:24:28;4.70;;;3.38;;
43883;SDS011;29544;52.018;5.810;2023-06-01T10:27:00;5.85;;;3.05;;
43883;SDS011;29544;52.018;5.810;2023-06-01T10:29:31;5.40;;;2.95;;
43883;SDS011;29544;52.018;5.810;2023-06-01T10:31:58;5.07;;;2.97;;
43883;SDS011;29544;52.018;5.810;2023-06-01T10:34:44;5.60;;;3.15;;
43883;SDS011;29544;52.018;5.810;2023-06-01T10:37:18;6.45;;;3.40;;
43883;SDS011;29544;52.018;5.810;2023-06-01T10:39:44;4.47;;;2.72;;
43883;SDS011;29544;52.018;5.810;2023-06-01T10:47:04;4.90;;;3.00;;
43883;SDS011;29544;52.018;5.810;2023-06-01T10:52:30;4.85;;;2.55;;
43883;SDS011;29544;52.018;5.810;2023-06-01T10:57:36;5.13;;;2.88;;
43883;SDS011;29544;52.018;5.810;2023-06-01T11:02:45;5.88;;;3.25;;
43883;SDS011;29544;52.018;5.810;2023-06-01T11:07:59;5.07;;;3.10;;
43883;SDS011;29544;52.018;5.810;2023-06-01T11:13:21;5.45;;;2.70;;
43883;SDS011;29544;52.018;5.810;2023-06-01T11:18:47;7.38;;;3.00;;
43883;SDS011;29544;52.018;5.810;2023-06-01T11:21:22;6.43;;;3.57;;
43883;SDS011;29544;52.018;5.810;2023-06-01T11:23:53;5.05;;;2.78;;
43883;SDS011;29544;52.018;5.810;2023-06-01T11:26:20;4.30;;;2.38;;
43883;SDS011;29544;52.018;5.810;2023-06-01T11:28:50;4.47;;;2.72;;
43883;SDS011;29544;52.018;5.810;2023-06-01T11:31:17;5.10;;;2.95;;
43883;SDS011;29544;52.018;5.810;2023-06-01T11:33:51;5.10;;;2.92;;
43883;SDS011;29544;52.018;5.810;2023-06-01T11:36:19;6.60;;;2.60;;
43883;SDS011;29544;52.018;5.810;2023-06-01T11:38:48;5.28;;;3.17;;
43883;SDS011;29544;52.018;5.810;2023-06-01T11:41:14;4.80;;;2.67;;
43883;SDS011;29544;52.018;5.810;2023-06-01T11:43:40;5.63;;;2.70;;
43883;SDS011;29544;52.018;5.810;2023-06-01T11:46:06;3.00;;;2.37;;
43883;SDS011;29544;52.018;5.810;2023-06-01T11:48:33;4.88;;;2.78;;
43883;SDS011;29544;52.018;5.810;2023-06-01T11:50:59;6.78;;;2.70;;
43883;SDS011;29544;52.018;5.810;2023-06-01T11:53:31;4.43;;;2.75;;
43883;SDS011;29544;52.018;5.810;2023-06-01T11:55:57;4.13;;;2.53;;
43883;SDS011;29544;52.018;5.810;2023-06-01T11:58:24;6.10;;;2.75;;
43883;SDS011;29544;52.018;5.810;2023-06-01T12:00:50;5.45;;;2.92;;
43883;SDS011;29544;52.018;5.810;2023-06-01T12:03:17;4.65;;;2.70;;
43883;SDS011;29544;52.018;5.810;2023-06-01T12:05:43;5.45;;;3.08;;
43883;SDS011;29544;52.018;5.810;2023-06-01T12:08:16;4.85;;;2.85;;
43883;SDS011;29544;52.018;5.810;2023-06-01T12:10:47;5.15;;;2.60;;
43883;SDS011;29544;52.018;5.810;2023-06-01T12:13:14;5.70;;;2.58;;
43883;SDS011;29544;52.018;5.810;2023-06-01T12:15:40;5.22;;;2.60;;
43883;SDS011;29544;52.018;5.810;2023-06-01T12:18:06;5.13;;;2.57;;
43883;SDS011;29544;52.018;5.810;2023-06-01T12:20:33;6.03;;;2.80;;
43883;SDS011;29544;52.018;5.810;2023-06-01T12:23:00;5.50;;;2.80;;
43883;SDS011;29544;52.018;5.810;2023-06-01T12:25:28;5.57;;;2.80;;
43883;SDS011;29544;52.018;5.810;2023-06-01T12:28:05;5.07;;;2.47;;
43883;SDS011;29544;52.018;5.810;2023-06-01T12:30:32;5.45;;;3.08;;
43883;SDS011;29544;52.018;5.810;2023-06-01T12:32:58;6.82;;;2.88;;
43883;SDS011;29544;52.018;5.810;2023-06-01T12:35:25;5.95;;;2.58;;
43883;SDS011;29544;52.018;5.810;2023-06-01T12:40:32;5.32;;;2.95;;
43883;SDS011;29544;52.018;5.810;2023-06-01T12:43:00;6.47;;;2.70;;
43883;SDS011;29544;52.018;5.810;2023-06-01T12:45:34;3.77;;;2.40;;
43883;SDS011;29544;52.018;5.810;2023-06-01T12:48:01;4.88;;;2.50;;
43883;SDS011;29544;52.018;5.810;2023-06-01T12:50:26;4.30;;;2.63;;
43883;SDS011;29544;52.018;5.810;2023-06-01T12:52:52;7.07;;;2.67;;
43883;SDS011;29544;52.018;5.810;2023-06-01T12:55:18;5.90;;;3.13;;
43883;SDS011;29544;52.018;5.810;2023-06-01T12:57:44;5.30;;;2.70;;
43883;SDS011;29544;52.018;5.810;2023-06-01T13:00:18;6.43;;;3.10;;
43883;SDS011;29544;52.018;5.810;2023-06-01T13:05:13;5.85;;;2.70;;
43883;SDS011;29544;52.018;5.810;2023-06-01T13:07:41;5.45;;;2.85;;
43883;SDS011;29544;52.018;5.810;2023-06-01T13:10:06;6.73;;;3.13;;
43883;SDS011;29544;52.018;5.810;2023-06-01T13:12:34;4.80;;;2.67;;
43883;SDS011;29544;52.018;5.810;2023-06-01T13:14:59;4.00;;;2.45;;
43883;SDS011;29544;52.018;5.810;2023-06-01T13:17:25;4.30;;;2.78;;
43883;SDS011;29544;52.018;5.810;2023-06-01T13:19:51;5.25;;;2.38;;
43883;SDS011;29544;52.018;5.810;2023-06-01T13:22:17;6.28;;;2.45;;
43883;SDS011;29544;52.018;5.810;2023-06-01T13:24:44;4.25;;;2.78;;
43883;SDS011;29544;52.018;5.810;2023-06-01T13:27:09;7.43;;;2.30;;
43883;SDS011;29544;52.018;5.810;2023-06-01T13:29:35;7.20;;;2.47;;
43883;SDS011;29544;52.018;5.810;2023-06-01T13:32:00;4.70;;;2.67;;
43883;SDS011;29544;52.018;5.810;2023-06-01T13:34:26;8.23;;;2.42;;
43883;SDS011;29544;52.018;5.810;2023-06-01T13:36:51;4.17;;;2.40;;
43883;SDS011;29544;52.018;5.810;2023-06-01T13:39:17;10.63;;;2.53;;
43883;SDS011;29544;52.018;5.810;2023-06-01T13:41:43;5.73;;;2.23;;
43883;SDS011;29544;52.018;5.810;2023-06-01T13:44:08;6.77;;;2.23;;
43883;SDS011;29544;52.018;5.810;2023-06-01T13:46:34;4.87;;;2.30;;
43883;SDS011;29544;52.018;5.810;2023-06-01T13:48:59;4.07;;;2.37;;
43883;SDS011;29544;52.018;5.810;2023-06-01T13:51:25;4.90;;;2.33;;
43883;SDS011;29544;52.018;5.810;2023-06-01T13:53:51;4.23;;;2.17;;
43883;SDS011;29544;52.018;5.810;2023-06-01T13:56:16;4.33;;;2.40;;
43883;SDS011;29544;52.018;5.810;2023-06-01T13:58:42;5.27;;;2.10;;
43883;SDS011;29544;52.018;5.810;2023-06-01T14:01:07;4.13;;;2.00;;
43883;SDS011;29544;52.018;5.810;2023-06-01T14:03:33;3.67;;;2.10;;
43883;SDS011;29544;52.018;5.810;2023-06-01T14:05:58;3.63;;;2.13;;
43883;SDS011;29544;52.018;5.810;2023-06-01T14:08:24;3.13;;;1.80;;
43883;SDS011;29544;52.018;5.810;2023-06-01T14:10:49;4.40;;;2.10;;
43883;SDS011;29544;52.018;5.810;2023-06-01T14:13:15;3.47;;;2.17;;
43883;SDS011;29544;52.018;5.810;2023-06-01T14:15:40;4.53;;;2.07;;
43883;SDS011;29544;52.018;5.810;2023-06-01T14:18:06;5.73;;;2.27;;
43883;SDS011;29544;52.018;5.810;2023-06-01T14:20:31;5.97;;;2.20;;
43883;SDS011;29544;52.018;5.810;2023-06-01T14:22:59;4.25;;;2.10;;
43883;SDS011;29544;52.018;5.810;2023-06-01T14:25:25;4.70;;;2.13;;
43883;SDS011;29544;52.018;5.810;2023-06-01T14:27:50;2.93;;;2.00;;
43883;SDS011;29544;52.018;5.810;2023-06-01T14:30:16;5.38;;;2.10;;
43883;SDS011;29544;52.018;5.810;2023-06-01T14:32:42;4.47;;;2.17;;
43883;SDS011;29544;52.018;5.810;2023-06-01T14:35:07;6.07;;;2.60;;
43883;SDS011;29544;52.018;5.810;2023-06-01T14:37:33;3.97;;;1.90;;
43883;SDS011;29544;52.018;5.810;2023-06-01T14:39:58;5.90;;;2.10;;
43883;SDS011;29544;52.018;5.810;2023-06-01T14:42:24;6.05;;;2.25;;
43883;SDS011;29544;52.018;5.810;2023-06-01T14:44:50;4.23;;;2.10;;
43883;SDS011;29544;52.018;5.810;2023-06-01T14:47:15;5.13;;;1.80;;
43883;SDS011;29544;52.018;5.810;2023-06-01T14:49:41;4.80;;;2.20;;
43883;SDS011;29544;52.018;5.810;2023-06-01T14:52:06;5.03;;;1.83;;
43883;SDS011;29544;52.018;5.810;2023-06-01T14:54:32;4.67;;;2.03;;
43883;SDS011;29544;52.018;5.810;2023-06-01T14:56:57;3.88;;;1.98;;
43883;SDS011;29544;52.018;5.810;2023-06-01T14:59:23;4.90;;;1.83;;
43883;SDS011;29544;52.018;5.810;2023-06-01T15:01:49;6.00;;;2.05;;
43883;SDS011;29544;52.018;5.810;2023-06-01T15:04:14;5.30;;;2.23;;
43883;SDS011;29544;52.018;5.810;2023-06-01T15:06:40;5.53;;;2.13;;
43883;SDS011;29544;52.018;5.810;2023-06-01T15:09:05;4.90;;;2.07;;
43883;SDS011;29544;52.018;5.810;2023-06-01T15:11:31;5.82;;;2.15;;
43883;SDS011;29544;52.018;5.810;2023-06-01T15:13:57;4.60;;;1.90;;
43883;SDS011;29544;52.018;5.810;2023-06-01T15:16:23;5.68;;;2.30;;
43883;SDS011;29544;52.018;5.810;2023-06-01T15:18:50;4.57;;;2.00;;
43883;SDS011;29544;52.018;5.810;2023-06-01T15:21:15;4.87;;;1.73;;
43883;SDS011;29544;52.018;5.810;2023-06-01T15:23:41;7.27;;;2.17;;
43883;SDS011;29544;52.018;5.810;2023-06-01T15:26:06;3.40;;;1.90;;
43883;SDS011;29544;52.018;5.810;2023-06-01T15:28:32;5.27;;;1.93;;
43883;SDS011;29544;52.018;5.810;2023-06-01T15:30:57;4.23;;;2.03;;
43883;SDS011;29544;52.018;5.810;2023-06-01T15:33:23;4.30;;;2.20;;
43883;SDS011;29544;52.018;5.810;2023-06-01T15:35:48;7.80;;;2.10;;
43883;SDS011;29544;52.018;5.810;2023-06-01T15:38:14;5.18;;;1.85;;